createdAt,value
2018-11-22T00:00:38.976Z,3.69
2018-11-22T00:01:39.002Z,3.75
2018-11-22T00:02:39.179Z,3.75
2018-11-22T00:03:39.219Z,3.75
2018-11-22T00:04:39.035Z,3.75
2018-11-22T00:05:39.141Z,3.75
2018-11-22T00:06:39.187Z,3.69
2018-11-22T00:07:38.954Z,3.69
2018-11-22T00:08:40.393Z,3.69
2018-11-22T00:09:39.036Z,3.69
2018-11-22T00:10:38.963Z,3.69
2018-11-22T00:11:38.984Z,3.69
2018-11-22T00:12:38.994Z,3.75
2018-11-22T00:13:39.396Z,3.69
2018-11-22T00:14:38.930Z,3.75
2018-11-22T00:15:38.978Z,3.69
2018-11-22T00:16:38.973Z,3.69
2018-11-22T00:17:38.980Z,3.69
2018-11-22T00:18:39.176Z,3.69
2018-11-22T00:19:39.061Z,3.69
2018-11-22T00:20:38.985Z,3.62
2018-11-22T00:21:38.933Z,3.62
2018-11-22T00:22:38.966Z,3.62
2018-11-22T00:23:38.948Z,3.62
2018-11-22T00:24:39.271Z,3.69
2018-11-22T00:25:39.019Z,3.69
2018-11-22T00:26:38.952Z,3.69
2018-11-22T00:27:38.951Z,3.62
2018-11-22T00:28:38.901Z,3.62
2018-11-22T00:29:38.979Z,3.62
2018-11-22T00:30:39.002Z,3.69
2018-11-22T00:31:39.098Z,3.62
2018-11-22T00:32:38.949Z,3.69
2018-11-22T00:33:39.126Z,3.69
2018-11-22T00:34:38.973Z,3.69
2018-11-22T00:35:39.177Z,3.69
2018-11-22T00:36:39.076Z,3.62
2018-11-22T00:37:38.974Z,3.69
2018-11-22T00:38:38.978Z,3.69
2018-11-22T00:39:39.238Z,3.69
2018-11-22T00:40:39.157Z,3.69
2018-11-22T00:41:39.183Z,3.75
2018-11-22T00:42:39.154Z,3.75
2018-11-22T00:43:39.127Z,3.75
2018-11-22T00:44:38.908Z,3.75
2018-11-22T00:45:39.380Z,3.75
2018-11-22T00:46:39.036Z,3.81
2018-11-22T00:47:38.914Z,3.81
2018-11-22T00:48:39.181Z,3.75
2018-11-22T00:49:38.931Z,3.81
2018-11-22T00:50:39.385Z,3.81
2018-11-22T00:51:39.647Z,3.81
2018-11-22T00:52:39.257Z,3.75
2018-11-22T00:53:39.143Z,3.75
2018-11-22T00:54:38.947Z,3.75
2018-11-22T00:55:39.127Z,3.75
2018-11-22T00:56:38.898Z,3.75
2018-11-22T00:57:39.244Z,3.69
2018-11-22T00:58:39.061Z,3.75
2018-11-22T00:59:38.968Z,3.69
2018-11-22T01:00:39.176Z,3.69
2018-11-22T01:01:39.011Z,3.69
2018-11-22T01:02:38.894Z,3.62
2018-11-22T01:03:38.964Z,3.62
2018-11-22T01:04:39.000Z,3.62
2018-11-22T01:05:38.966Z,3.62
2018-11-22T01:06:38.953Z,3.62
2018-11-22T01:07:38.913Z,3.62
2018-11-22T01:08:38.953Z,3.62
2018-11-22T01:09:39.159Z,3.62
2018-11-22T01:10:38.843Z,3.56
2018-11-22T01:11:39.143Z,3.56
2018-11-22T01:12:39.243Z,3.56
2018-11-22T01:13:39.236Z,3.56
2018-11-22T01:14:39.089Z,3.62
2018-11-22T01:15:39.199Z,3.56
2018-11-22T01:16:39.014Z,3.56
2018-11-22T01:17:38.881Z,3.56
2018-11-22T01:18:38.840Z,3.56
2018-11-22T01:19:38.912Z,3.56
2018-11-22T01:20:38.823Z,3.56
2018-11-22T01:21:39.011Z,3.56
2018-11-22T01:22:39.118Z,3.56
2018-11-22T01:23:39.039Z,3.56
2018-11-22T01:24:38.876Z,3.56
2018-11-22T01:25:39.158Z,3.56
2018-11-22T01:26:39.182Z,3.56
2018-11-22T01:27:39.290Z,3.56
2018-11-22T01:28:38.905Z,3.56
2018-11-22T01:29:39.017Z,3.56
2018-11-22T01:30:38.835Z,3.56
2018-11-22T01:31:38.890Z,3.56
2018-11-22T01:32:39.161Z,3.56
2018-11-22T01:33:39.211Z,3.62
2018-11-22T01:34:39.137Z,3.62
2018-11-22T01:35:38.884Z,3.62
2018-11-22T01:36:39.116Z,3.56
2018-11-22T01:37:39.079Z,3.62
2018-11-22T01:38:38.842Z,3.62
2018-11-22T01:39:39.252Z,3.62
2018-11-22T01:40:39.095Z,3.62
2018-11-22T01:41:38.848Z,3.69
2018-11-22T01:42:39.263Z,3.62
2018-11-22T01:43:38.837Z,3.62
2018-11-22T01:44:38.844Z,3.62
2018-11-22T01:45:38.952Z,3.62
2018-11-22T01:46:38.826Z,3.56
2018-11-22T01:47:38.843Z,3.56
2018-11-22T01:48:38.979Z,3.56
2018-11-22T01:49:38.814Z,3.56
2018-11-22T01:50:38.860Z,3.62
2018-11-22T01:51:38.940Z,3.62
2018-11-22T01:52:38.903Z,3.62
2018-11-22T01:53:38.866Z,3.56
2018-11-22T01:54:38.937Z,3.62
2018-11-22T01:55:38.926Z,3.56
2018-11-22T01:56:38.842Z,3.56
2018-11-22T01:57:38.903Z,3.56
2018-11-22T01:58:38.842Z,3.62
2018-11-22T01:59:38.872Z,3.56
2018-11-22T02:00:38.853Z,3.56
2018-11-22T02:01:38.878Z,3.56
2018-11-22T02:02:38.908Z,3.62
2018-11-22T02:03:39.239Z,3.56
2018-11-22T02:04:39.120Z,3.62
2018-11-22T02:05:39.167Z,3.62
2018-11-22T02:06:38.826Z,3.62
2018-11-22T02:07:39.042Z,3.56
2018-11-22T02:08:38.936Z,3.62
2018-11-22T02:09:38.790Z,3.62
2018-11-22T02:10:38.848Z,3.62
2018-11-22T02:11:38.800Z,3.62
2018-11-22T02:12:39.210Z,3.69
2018-11-22T02:13:38.813Z,3.62
2018-11-22T02:14:38.802Z,3.69
2018-11-22T02:15:39.101Z,3.69
2018-11-22T02:16:38.803Z,3.69
2018-11-22T02:17:38.944Z,3.69
2018-11-22T02:18:39.266Z,3.62
2018-11-22T02:19:38.776Z,3.69
2018-11-22T02:20:38.855Z,3.69
2018-11-22T02:21:38.807Z,3.69
2018-11-22T02:22:39.181Z,3.69
2018-11-22T02:23:38.955Z,3.69
2018-11-22T02:24:39.148Z,3.75
2018-11-22T02:25:38.763Z,3.69
2018-11-22T02:26:38.753Z,3.69
2018-11-22T02:27:38.966Z,3.75
2018-11-22T02:28:38.818Z,3.69
2018-11-22T02:29:38.867Z,3.69
2018-11-22T02:30:39.043Z,3.75
2018-11-22T02:31:39.130Z,3.69
2018-11-22T02:32:38.760Z,3.69
2018-11-22T02:33:38.811Z,3.69
2018-11-22T02:34:39.272Z,3.75
2018-11-22T02:35:39.483Z,3.75
2018-11-22T02:36:38.808Z,3.75
2018-11-22T02:37:38.760Z,3.75
2018-11-22T02:38:38.907Z,3.75
2018-11-22T02:39:38.946Z,3.75
2018-11-22T02:40:38.884Z,3.75
2018-11-22T02:41:38.903Z,3.75
2018-11-22T02:42:38.887Z,3.75
2018-11-22T02:43:38.790Z,3.75
2018-11-22T02:44:38.810Z,3.75
2018-11-22T02:45:38.813Z,3.75
2018-11-22T02:46:38.799Z,3.75
2018-11-22T02:47:38.925Z,3.69
2018-11-22T02:48:38.729Z,3.75
2018-11-22T02:49:39.153Z,3.69
2018-11-22T02:50:38.821Z,3.75
2018-11-22T02:51:39.157Z,3.75
2018-11-22T02:52:38.817Z,3.69
2018-11-22T02:53:38.880Z,3.75
2018-11-22T02:54:38.901Z,3.75
2018-11-22T02:55:38.866Z,3.75
2018-11-22T02:56:38.788Z,3.75
2018-11-22T02:57:38.890Z,3.75
2018-11-22T02:58:38.850Z,3.75
2018-11-22T02:59:38.750Z,3.75
2018-11-22T03:00:38.980Z,3.69
2018-11-22T03:01:39.213Z,3.75
2018-11-22T03:02:38.808Z,3.75
2018-11-22T03:03:38.964Z,3.75
2018-11-22T03:04:39.163Z,3.69
2018-11-22T03:05:38.701Z,3.75
2018-11-22T03:06:38.952Z,3.69
2018-11-22T03:07:38.739Z,3.75
2018-11-22T03:08:38.859Z,3.69
2018-11-22T03:09:38.832Z,3.75
2018-11-22T03:10:38.844Z,3.75
2018-11-22T03:11:38.778Z,3.75
2018-11-22T03:12:39.323Z,3.69
2018-11-22T03:13:38.766Z,3.75
2018-11-22T03:14:38.784Z,3.75
2018-11-22T03:15:38.742Z,3.69
2018-11-22T03:16:38.781Z,3.81
2018-11-22T03:17:38.723Z,3.69
2018-11-22T03:18:38.728Z,3.75
2018-11-22T03:19:39.094Z,3.69
2018-11-22T03:20:38.741Z,3.75
2018-11-22T03:21:38.770Z,3.69
2018-11-22T03:22:38.715Z,3.75
2018-11-22T03:23:38.756Z,3.69
2018-11-22T03:24:38.728Z,3.75
2018-11-22T03:25:38.704Z,3.69
2018-11-22T03:26:38.678Z,3.75
2018-11-22T03:27:38.684Z,3.75
2018-11-22T03:28:38.727Z,3.75
2018-11-22T03:29:38.754Z,3.75
2018-11-22T03:30:38.767Z,3.81
2018-11-22T03:31:38.990Z,3.75
2018-11-22T03:32:38.733Z,3.81
2018-11-22T03:33:38.842Z,3.75
2018-11-22T03:34:38.704Z,3.75
2018-11-22T03:35:38.728Z,3.81
2018-11-22T03:36:38.901Z,3.75
2018-11-22T03:37:38.742Z,3.75
2018-11-22T03:38:38.763Z,3.75
2018-11-22T03:39:38.897Z,3.75
2018-11-22T03:40:38.702Z,3.75
2018-11-22T03:41:38.782Z,3.75
2018-11-22T03:42:38.737Z,3.75
2018-11-22T03:43:38.757Z,3.81
2018-11-22T03:44:38.805Z,3.75
2018-11-22T03:45:38.790Z,3.81
2018-11-22T03:46:38.711Z,3.75
2018-11-22T03:47:38.842Z,3.81
2018-11-22T03:48:39.289Z,3.81
2018-11-22T03:49:39.281Z,3.75
2018-11-22T03:50:38.972Z,3.75
2018-11-22T03:51:38.709Z,3.75
2018-11-22T03:52:38.702Z,3.75
2018-11-22T03:53:38.765Z,3.75
2018-11-22T03:54:39.082Z,3.69
2018-11-22T03:55:38.666Z,3.69
2018-11-22T03:56:38.887Z,3.69
2018-11-22T03:57:38.735Z,3.69
2018-11-22T03:58:38.798Z,3.62
2018-11-22T03:59:38.797Z,3.69
2018-11-22T04:00:38.845Z,3.69
2018-11-22T04:01:38.673Z,3.69
2018-11-22T04:02:38.854Z,3.62
2018-11-22T04:03:38.778Z,3.62
2018-11-22T04:04:39.056Z,3.69
2018-11-22T04:05:38.652Z,3.69
2018-11-22T04:06:38.680Z,3.69
2018-11-22T04:07:38.665Z,3.75
2018-11-22T04:08:38.935Z,3.69
2018-11-22T04:09:38.663Z,3.69
2018-11-22T04:10:38.841Z,3.75
2018-11-22T04:11:38.847Z,3.69
2018-11-22T04:12:39.482Z,3.69
2018-11-22T04:13:38.827Z,3.69
2018-11-22T04:14:38.699Z,3.69
2018-11-22T04:15:38.655Z,3.62
2018-11-22T04:16:38.798Z,3.62
2018-11-22T04:17:38.601Z,3.56
2018-11-22T04:18:38.791Z,3.62
2018-11-22T04:19:38.805Z,3.56
2018-11-22T04:20:38.653Z,3.62
2018-11-22T04:21:39.004Z,3.56
2018-11-22T04:22:38.732Z,3.62
2018-11-22T04:23:38.710Z,3.56
2018-11-22T04:24:38.729Z,3.56
2018-11-22T04:25:38.622Z,3.62
2018-11-22T04:26:39.286Z,3.62
2018-11-22T04:27:38.638Z,3.62
2018-11-22T04:28:38.645Z,3.56
2018-11-22T04:29:39.011Z,3.62
2018-11-22T04:30:38.861Z,3.56
2018-11-22T04:31:38.600Z,3.56
2018-11-22T04:32:38.717Z,3.56
2018-11-22T04:33:38.663Z,3.56
2018-11-22T04:34:38.684Z,3.56
2018-11-22T04:35:38.677Z,3.56
2018-11-22T04:36:38.642Z,3.56
2018-11-22T04:37:38.583Z,3.56
2018-11-22T04:38:38.656Z,3.56
2018-11-22T04:39:38.674Z,3.56
2018-11-22T04:40:39.120Z,3.56
2018-11-22T04:41:38.696Z,3.56
2018-11-22T04:42:38.596Z,3.56
2018-11-22T04:43:38.615Z,3.56
2018-11-22T04:44:38.625Z,3.56
2018-11-22T04:45:39.135Z,3.56
2018-11-22T04:46:38.672Z,3.56
2018-11-22T04:47:38.619Z,3.62
2018-11-22T04:48:38.576Z,3.56
2018-11-22T04:49:38.761Z,3.62
2018-11-22T04:50:38.613Z,3.62
2018-11-22T04:51:38.712Z,3.62
2018-11-22T04:52:38.612Z,3.62
2018-11-22T04:53:38.661Z,3.62
2018-11-22T04:54:38.556Z,3.69
2018-11-22T04:55:38.577Z,3.62
2018-11-22T04:56:38.575Z,3.69
2018-11-22T04:57:38.592Z,3.62
2018-11-22T04:58:38.602Z,3.69
2018-11-22T04:59:38.566Z,3.62
2018-11-22T05:00:38.801Z,3.69
2018-11-22T05:01:38.580Z,3.69
2018-11-22T05:02:38.635Z,3.69
2018-11-22T05:03:39.257Z,3.69
2018-11-22T05:04:38.842Z,3.69
2018-11-22T05:05:38.674Z,3.69
2018-11-22T05:06:38.817Z,3.69
2018-11-22T05:07:38.530Z,3.69
2018-11-22T05:08:38.622Z,3.69
2018-11-22T05:09:38.713Z,3.69
2018-11-22T05:10:38.750Z,3.69
2018-11-22T05:11:38.573Z,3.69
2018-11-22T05:12:38.707Z,3.69
2018-11-22T05:13:38.708Z,3.69
2018-11-22T05:14:38.554Z,3.62
2018-11-22T05:15:39.387Z,3.62
2018-11-22T05:16:38.761Z,3.56
2018-11-22T05:17:38.526Z,3.62
2018-11-22T05:18:38.659Z,3.56
2018-11-22T05:19:38.644Z,3.62
2018-11-22T05:20:38.855Z,3.56
2018-11-22T05:21:38.549Z,3.62
2018-11-22T05:22:38.759Z,3.56
2018-11-22T05:23:38.677Z,3.56
2018-11-22T05:24:38.576Z,3.56
2018-11-22T05:25:38.567Z,3.56
2018-11-22T05:26:38.703Z,3.56
2018-11-22T05:27:38.565Z,3.56
2018-11-22T05:28:38.550Z,3.56
2018-11-22T05:29:38.617Z,3.56
2018-11-22T05:30:39.803Z,3.56
2018-11-22T05:31:38.613Z,3.56
2018-11-22T05:32:38.666Z,3.56
2018-11-22T05:33:38.640Z,3.56
2018-11-22T05:34:38.570Z,3.5
2018-11-22T05:35:38.610Z,3.56
2018-11-22T05:36:38.751Z,3.56
2018-11-22T05:37:38.701Z,3.5
2018-11-22T05:38:38.668Z,3.5
2018-11-22T05:39:38.890Z,3.5
2018-11-22T05:40:38.635Z,3.44
2018-11-22T05:41:44.035Z,3.5
2018-11-22T05:42:38.517Z,3.5
2018-11-22T05:43:38.574Z,3.44
2018-11-22T05:44:38.611Z,3.5
2018-11-22T05:45:38.757Z,3.44
2018-11-22T05:46:38.738Z,3.44
2018-11-22T05:47:38.535Z,3.44
2018-11-22T05:48:38.655Z,3.44
2018-11-22T05:49:38.637Z,3.44
2018-11-22T05:50:38.870Z,3.44
2018-11-22T05:51:38.560Z,3.44
2018-11-22T05:52:38.515Z,3.44
2018-11-22T05:53:38.682Z,3.44
2018-11-22T05:54:38.651Z,3.44
2018-11-22T05:55:38.853Z,3.37
2018-11-22T05:56:38.654Z,3.44
2018-11-22T05:57:39.123Z,3.37
2018-11-22T05:58:38.596Z,3.37
2018-11-22T05:59:38.726Z,3.31
2018-11-22T06:00:38.697Z,3.31
2018-11-22T06:01:38.558Z,3.37
2018-11-22T06:02:38.478Z,3.31
2018-11-22T06:03:38.609Z,3.31
2018-11-22T06:04:38.591Z,3.31
2018-11-22T06:05:38.619Z,3.31
2018-11-22T06:06:38.551Z,3.31
2018-11-22T06:07:38.645Z,3.31
2018-11-22T06:08:38.913Z,3.25
2018-11-22T06:09:38.494Z,3.31
2018-11-22T06:10:38.677Z,3.31
2018-11-22T06:11:38.541Z,3.31
2018-11-22T06:12:38.576Z,3.31
2018-11-22T06:13:38.492Z,3.31
2018-11-22T06:14:38.452Z,3.31
2018-11-22T06:15:38.541Z,3.37
2018-11-22T06:16:38.540Z,3.31
2018-11-22T06:17:38.464Z,3.31
2018-11-22T06:18:38.528Z,3.31
2018-11-22T06:19:38.460Z,3.31
2018-11-22T06:20:38.461Z,3.25
2018-11-22T06:21:38.451Z,3.25
2018-11-22T06:22:38.636Z,3.25
2018-11-22T06:23:38.475Z,3.25
2018-11-22T06:24:38.436Z,3.25
2018-11-22T06:25:38.470Z,3.25
2018-11-22T06:26:38.516Z,3.25
2018-11-22T06:27:38.719Z,3.25
2018-11-22T06:28:38.469Z,3.19
2018-11-22T06:29:38.509Z,3.19
2018-11-22T06:30:38.840Z,3.19
2018-11-22T06:31:38.461Z,3.19
2018-11-22T06:32:38.436Z,3.19
2018-11-22T06:33:38.437Z,3.19
2018-11-22T06:34:38.591Z,3.19
2018-11-22T06:35:38.446Z,3.19
2018-11-22T06:36:38.452Z,3.19
2018-11-22T06:37:38.768Z,3.19
2018-11-22T06:38:38.491Z,3.19
2018-11-22T06:39:38.577Z,3.19
2018-11-22T06:40:38.721Z,3.19
2018-11-22T06:41:38.609Z,3.19
2018-11-22T06:42:38.493Z,3.25
2018-11-22T06:43:38.642Z,3.25
2018-11-22T06:44:38.509Z,3.25
2018-11-22T06:45:38.640Z,3.19
2018-11-22T06:46:38.421Z,3.19
2018-11-22T06:47:38.498Z,3.19
2018-11-22T06:48:38.590Z,3.25
2018-11-22T06:49:38.480Z,3.19
2018-11-22T06:50:38.619Z,3.19
2018-11-22T06:51:38.459Z,3.19
2018-11-22T06:52:38.672Z,3.19
2018-11-22T06:53:38.443Z,3.25
2018-11-22T06:54:38.598Z,3.19
2018-11-22T06:55:38.457Z,3.25
2018-11-22T06:56:38.560Z,3.25
2018-11-22T06:57:38.482Z,3.19
2018-11-22T06:58:38.454Z,3.19
2018-11-22T06:59:38.509Z,3.25
2018-11-22T07:00:38.542Z,3.19
2018-11-22T07:01:38.499Z,3.19
2018-11-22T07:02:38.636Z,3.19
2018-11-22T07:03:38.933Z,3.25
2018-11-22T07:04:38.544Z,3.25
2018-11-22T07:05:38.485Z,3.25
2018-11-22T07:06:38.585Z,3.25
2018-11-22T07:07:38.538Z,3.31
2018-11-22T07:08:38.476Z,3.31
2018-11-22T07:09:38.499Z,3.31
2018-11-22T07:10:38.816Z,3.31
2018-11-22T07:11:38.517Z,3.31
2018-11-22T07:12:38.611Z,3.25
2018-11-22T07:13:38.599Z,3.31
2018-11-22T07:14:39.195Z,3.25
2018-11-22T07:15:38.412Z,3.25
2018-11-22T07:16:38.521Z,3.25
2018-11-22T07:17:38.491Z,3.25
2018-11-22T07:18:38.853Z,3.31
2018-11-22T07:19:38.497Z,3.19
2018-11-22T07:20:38.683Z,3.25
2018-11-22T07:21:38.484Z,3.19
2018-11-22T07:22:38.437Z,3.19
2018-11-22T07:23:38.435Z,3.19
2018-11-22T07:24:38.439Z,3.25
2018-11-22T07:25:38.373Z,3.19
2018-11-22T07:26:39.641Z,3.19
2018-11-22T07:27:38.593Z,3.19
2018-11-22T07:28:38.397Z,3.19
2018-11-22T07:29:38.401Z,3.25
2018-11-22T07:30:42.753Z,3.19
2018-11-22T07:31:38.351Z,3.19
2018-11-22T07:32:38.664Z,3.19
2018-11-22T07:33:38.927Z,3.19
2018-11-22T07:34:38.687Z,3.19
2018-11-22T07:35:38.497Z,3.12
2018-11-22T07:36:38.519Z,3.19
2018-11-22T07:37:38.919Z,3.19
2018-11-22T07:38:38.422Z,3.19
2018-11-22T07:39:38.547Z,3.12
2018-11-22T07:40:38.483Z,3.12
2018-11-22T07:41:38.387Z,3.19
2018-11-22T07:42:38.656Z,3.12
2018-11-22T07:43:38.934Z,3.12
2018-11-22T07:44:38.484Z,3.12
2018-11-22T07:45:38.349Z,3.12
2018-11-22T07:46:38.337Z,3.12
2018-11-22T07:47:38.425Z,3.12
2018-11-22T07:48:38.354Z,3.12
2018-11-22T07:49:38.361Z,3.19
2018-11-22T07:50:38.331Z,3.12
2018-11-22T07:51:38.306Z,3.19
2018-11-22T07:52:38.332Z,3.19
2018-11-22T07:53:38.321Z,3.12
2018-11-22T07:54:38.359Z,3.12
2018-11-22T07:55:38.325Z,3.12
2018-11-22T07:56:38.338Z,3.12
2018-11-22T07:57:38.353Z,3.12
2018-11-22T07:58:38.532Z,3.12
2018-11-22T07:59:38.627Z,3.12
2018-11-22T08:00:38.332Z,3.12
2018-11-22T08:01:38.382Z,3.12
2018-11-22T08:02:38.313Z,3.19
2018-11-22T08:03:38.320Z,3.19
2018-11-22T08:04:38.332Z,3.19
2018-11-22T08:05:38.346Z,3.19
2018-11-22T08:06:38.376Z,3.19
2018-11-22T08:07:38.497Z,3.19
2018-11-22T08:08:38.359Z,3.25
2018-11-22T08:09:38.431Z,3.19
2018-11-22T08:10:38.369Z,3.19
2018-11-22T08:11:38.408Z,3.19
2018-11-22T08:12:39.168Z,3.19
2018-11-22T08:13:38.378Z,3.19
2018-11-22T08:14:38.650Z,3.25
2018-11-22T08:15:39.205Z,3.25
2018-11-22T08:16:38.500Z,3.25
2018-11-22T08:17:38.391Z,3.25
2018-11-22T08:18:38.373Z,3.25
2018-11-22T08:19:38.302Z,3.31
2018-11-22T08:20:38.313Z,3.31
2018-11-22T08:21:38.627Z,3.31
2018-11-22T08:22:38.464Z,3.31
2018-11-22T08:23:38.304Z,3.31
2018-11-22T08:24:38.515Z,3.37
2018-11-22T08:25:38.475Z,3.37
2018-11-22T08:26:39.130Z,3.37
2018-11-22T08:27:38.398Z,3.37
2018-11-22T08:28:38.385Z,3.37
2018-11-22T08:29:38.404Z,3.37
2018-11-22T08:30:38.411Z,3.44
2018-11-22T08:31:38.413Z,3.44
2018-11-22T08:32:38.317Z,3.44
2018-11-22T08:33:38.373Z,3.44
2018-11-22T08:34:38.907Z,3.44
2018-11-22T08:35:38.416Z,3.5
2018-11-22T08:36:38.330Z,3.44
2018-11-22T08:37:38.279Z,3.5
2018-11-22T08:38:38.359Z,3.5
2018-11-22T08:39:38.279Z,3.5
2018-11-22T08:40:38.280Z,3.5
2018-11-22T08:41:38.365Z,3.5
2018-11-22T08:42:38.560Z,3.5
2018-11-22T08:43:38.307Z,3.56
2018-11-22T08:44:38.463Z,3.56
2018-11-22T08:45:38.341Z,3.56
2018-11-22T08:46:38.257Z,3.56
2018-11-22T08:47:38.447Z,3.5
2018-11-22T08:48:38.372Z,3.5
2018-11-22T08:49:38.413Z,3.5
2018-11-22T08:50:38.346Z,3.5
2018-11-22T08:51:38.280Z,3.44
2018-11-22T08:52:38.444Z,3.44
2018-11-22T08:53:38.308Z,3.44
2018-11-22T08:54:38.413Z,3.56
2018-11-22T08:55:38.349Z,3.5
2018-11-22T08:56:38.464Z,3.56
2018-11-22T08:57:38.369Z,3.5
2018-11-22T08:58:38.433Z,3.5
2018-11-22T08:59:38.565Z,3.5
2018-11-22T09:00:38.478Z,3.5
2018-11-22T09:01:38.601Z,3.5
2018-11-22T09:02:45.397Z,3.5
2018-11-22T09:03:38.399Z,3.5
2018-11-22T09:04:38.335Z,3.56
2018-11-22T09:05:38.312Z,3.56
2018-11-22T09:06:38.465Z,3.56
2018-11-22T09:07:38.490Z,3.56
2018-11-22T09:08:38.575Z,3.62
2018-11-22T09:09:38.379Z,3.56
2018-11-22T09:10:38.399Z,3.56
2018-11-22T09:11:38.330Z,3.56
2018-11-22T09:12:38.332Z,3.62
2018-11-22T09:13:38.445Z,3.69
2018-11-22T09:14:38.347Z,3.69
2018-11-22T09:15:38.320Z,3.75
2018-11-22T09:16:38.286Z,3.69
2018-11-22T09:17:38.300Z,3.75
2018-11-22T09:18:38.331Z,3.75
2018-11-22T09:19:38.437Z,3.81
2018-11-22T09:20:38.284Z,3.81
2018-11-22T09:21:38.259Z,3.81
2018-11-22T09:22:38.335Z,3.81
2018-11-22T09:23:38.885Z,3.87
2018-11-22T09:24:39.269Z,3.81
2018-11-22T09:25:38.272Z,3.87
2018-11-22T09:26:38.332Z,3.87
2018-11-22T09:27:38.306Z,3.87
2018-11-22T09:28:38.310Z,3.94
2018-11-22T09:29:39.946Z,3.94
2018-11-22T09:30:38.603Z,3.94
2018-11-22T09:31:38.271Z,3.87
2018-11-22T09:32:38.271Z,3.87
2018-11-22T09:33:38.284Z,3.87
2018-11-22T09:34:38.435Z,3.94
2018-11-22T09:35:38.253Z,3.94
2018-11-22T09:36:38.228Z,3.94
2018-11-22T09:37:38.306Z,3.87
2018-11-22T09:38:38.449Z,3.94
2018-11-22T09:39:38.246Z,3.94
2018-11-22T09:40:38.488Z,3.94
2018-11-22T09:41:38.280Z,3.94
2018-11-22T09:42:38.306Z,3.94
2018-11-22T09:43:38.376Z,3.87
2018-11-22T09:44:38.397Z,3.94
2018-11-22T09:45:38.470Z,3.87
2018-11-22T09:46:38.334Z,3.94
2018-11-22T09:47:38.406Z,3.87
2018-11-22T09:48:38.975Z,3.87
2018-11-22T09:49:38.238Z,3.87
2018-11-22T09:50:38.448Z,3.94
2018-11-22T09:51:38.411Z,4
2018-11-22T09:52:38.297Z,4
2018-11-22T09:53:38.382Z,4.06
2018-11-22T09:54:38.303Z,4.06
2018-11-22T09:55:38.303Z,4.06
2018-11-22T09:56:38.280Z,4.12
2018-11-22T09:57:38.209Z,4.12
2018-11-22T09:58:38.437Z,4.12
2018-11-22T09:59:38.296Z,4.12
2018-11-22T10:00:38.324Z,4.19
2018-11-22T10:01:38.218Z,4.12
2018-11-22T10:02:38.314Z,4.12
2018-11-22T10:03:38.170Z,4.19
2018-11-22T10:04:38.917Z,4.19
2018-11-22T10:05:38.536Z,4.25
2018-11-22T10:06:38.247Z,4.25
2018-11-22T10:07:38.235Z,4.31
2018-11-22T10:08:38.950Z,4.25
2018-11-22T10:09:38.397Z,4.31
2018-11-22T10:10:38.289Z,4.31
2018-11-22T10:11:38.186Z,4.37
2018-11-22T10:12:39.453Z,4.31
2018-11-22T10:13:38.255Z,4.31
2018-11-22T10:14:38.165Z,4.31
2018-11-22T10:15:38.248Z,4.31
2018-11-22T10:16:38.331Z,4.37
2018-11-22T10:17:38.417Z,4.31
2018-11-22T10:18:38.939Z,4.44
2018-11-22T10:19:38.279Z,4.44
2018-11-22T10:20:38.389Z,4.44
2018-11-22T10:21:38.256Z,4.37
2018-11-22T10:22:39.158Z,4.5
2018-11-22T10:23:38.567Z,4.5
2018-11-22T10:24:38.298Z,4.5
2018-11-22T10:25:38.305Z,4.5
2018-11-22T10:26:38.568Z,4.5
2018-11-22T10:27:38.143Z,4.44
2018-11-22T10:28:38.662Z,4.5
2018-11-22T10:29:38.276Z,4.5
2018-11-22T10:30:38.260Z,4.56
2018-11-22T10:31:38.966Z,4.56
2018-11-22T10:32:38.324Z,4.62
2018-11-22T10:33:38.139Z,4.62
2018-11-22T10:34:38.250Z,4.62
2018-11-22T10:35:38.143Z,4.69
2018-11-22T10:36:38.265Z,4.69
2018-11-22T10:37:38.552Z,4.69
2018-11-22T10:38:38.238Z,4.62
2018-11-22T10:39:38.191Z,4.69
2018-11-22T10:40:38.296Z,4.69
2018-11-22T10:41:38.666Z,4.75
2018-11-22T10:42:39.251Z,4.81
2018-11-22T10:43:38.256Z,4.87
2018-11-22T10:44:38.211Z,4.94
2018-11-22T10:45:38.228Z,5
2018-11-22T10:46:38.106Z,4.94
2018-11-22T10:47:38.195Z,5.06
2018-11-22T10:48:38.136Z,5
2018-11-22T10:49:38.214Z,5
2018-11-22T10:50:38.238Z,5.06
2018-11-22T10:51:38.092Z,5.12
2018-11-22T10:52:38.154Z,5.19
2018-11-22T10:53:38.102Z,5.25
2018-11-22T10:54:38.279Z,5.25
2018-11-22T10:55:38.298Z,5.31
2018-11-22T10:56:38.087Z,5.31
2018-11-22T10:57:38.164Z,5.31
2018-11-22T10:58:38.088Z,5.37
2018-11-22T10:59:38.151Z,5.44
2018-11-22T11:00:38.142Z,5.44
2018-11-22T11:01:38.231Z,5.44
2018-11-22T11:02:38.170Z,5.44
2018-11-22T11:03:38.151Z,5.44
2018-11-22T11:04:38.146Z,5.44
2018-11-22T11:05:38.358Z,5.37
2018-11-22T11:06:38.141Z,5.37
2018-11-22T11:07:38.141Z,5.44
2018-11-22T11:08:38.176Z,5.25
2018-11-22T11:09:38.128Z,5.31
2018-11-22T11:10:38.178Z,5.31
2018-11-22T11:11:38.217Z,5.31
2018-11-22T11:12:38.169Z,5.37
2018-11-22T11:13:38.210Z,5.44
2018-11-22T11:14:38.060Z,5.5
2018-11-22T11:15:38.091Z,5.56
2018-11-22T11:16:38.285Z,5.62
2018-11-22T11:17:38.445Z,5.69
2018-11-22T11:18:38.194Z,5.75
2018-11-22T11:19:38.216Z,5.75
2018-11-22T11:20:38.245Z,5.75
2018-11-22T11:21:38.323Z,5.81
2018-11-22T11:22:38.156Z,5.87
2018-11-22T11:23:38.487Z,5.94
2018-11-22T11:24:42.409Z,5.94
2018-11-22T11:25:38.199Z,5.87
2018-11-22T11:26:38.346Z,5.94
2018-11-22T11:27:38.239Z,5.94
2018-11-22T11:28:38.171Z,5.94
2018-11-22T11:29:38.441Z,5.94
2018-11-22T11:30:39.199Z,5.75
2018-11-22T11:31:38.152Z,5.56
2018-11-22T11:32:38.395Z,5.69
2018-11-22T11:33:38.105Z,5.75
2018-11-22T11:34:38.419Z,5.75
2018-11-22T11:35:38.140Z,5.81
2018-11-22T11:36:38.162Z,5.81
2018-11-22T11:37:38.219Z,5.81
2018-11-22T11:38:38.039Z,5.87
2018-11-22T11:39:38.250Z,5.87
2018-11-22T11:40:38.149Z,5.87
2018-11-22T11:41:38.433Z,5.87
2018-11-22T11:42:38.231Z,5.81
2018-11-22T11:43:38.240Z,5.69
2018-11-22T11:44:38.386Z,5.56
2018-11-22T11:45:38.137Z,5.62
2018-11-22T11:46:38.331Z,5.62
2018-11-22T11:47:38.184Z,5.69
2018-11-22T11:48:38.359Z,5.75
2018-11-22T11:49:38.161Z,5.75
2018-11-22T11:50:38.168Z,5.75
2018-11-22T11:51:38.196Z,5.75
2018-11-22T11:52:38.546Z,5.69
2018-11-22T11:53:42.136Z,5.69
2018-11-22T11:54:38.325Z,5.69
2018-11-22T11:55:38.188Z,5.69
2018-11-22T11:56:38.043Z,5.75
2018-11-22T11:57:38.189Z,5.75
2018-11-22T11:58:38.161Z,5.75
2018-11-22T11:59:38.349Z,5.75
2018-11-22T12:00:38.291Z,5.69
2018-11-22T12:01:38.101Z,5.62
2018-11-22T12:02:38.100Z,5.69
2018-11-22T12:03:38.251Z,5.62
2018-11-22T12:04:38.361Z,5.56
2018-11-22T12:05:38.260Z,5.56
2018-11-22T12:06:38.095Z,5.5
2018-11-22T12:07:38.259Z,5.5
2018-11-22T12:08:38.197Z,5.5
2018-11-22T12:09:38.133Z,5.62
2018-11-22T12:10:38.055Z,5.62
2018-11-22T12:11:38.367Z,5.69
2018-11-22T12:12:38.036Z,5.69
2018-11-22T12:13:38.675Z,5.81
2018-11-22T12:14:38.119Z,5.81
2018-11-22T12:15:38.124Z,5.87
2018-11-22T12:16:38.003Z,5.87
2018-11-22T12:17:38.158Z,5.87
2018-11-22T12:18:38.005Z,5.81
2018-11-22T12:19:37.970Z,5.87
2018-11-22T12:20:37.980Z,5.87
2018-11-22T12:21:38.093Z,5.94
2018-11-22T12:22:38.065Z,5.94
2018-11-22T12:23:38.027Z,6
2018-11-22T12:24:38.149Z,6.06
2018-11-22T12:25:38.039Z,6.06
2018-11-22T12:26:37.988Z,6.06
2018-11-22T12:27:38.274Z,6.06
2018-11-22T12:28:37.989Z,6.06
2018-11-22T12:29:38.001Z,6.06
2018-11-22T12:30:38.030Z,6.12
2018-11-22T12:31:38.015Z,6.12
2018-11-22T12:32:38.212Z,6.12
2018-11-22T12:33:38.155Z,6.12
2018-11-22T12:34:37.972Z,6.12
2018-11-22T12:35:38.124Z,6.12
2018-11-22T12:36:38.130Z,6.12
2018-11-22T12:37:43.635Z,6.19
2018-11-22T12:38:38.335Z,6.12
2018-11-22T12:39:38.147Z,6.12
2018-11-22T12:40:38.088Z,6.12
2018-11-22T12:41:38.021Z,6.19
2018-11-22T12:42:38.120Z,6.19
2018-11-22T12:43:38.022Z,6.19
2018-11-22T12:44:37.996Z,6.19
2018-11-22T12:45:38.142Z,6.19
2018-11-22T12:46:38.347Z,6.19
2018-11-22T12:47:38.305Z,6.12
2018-11-22T12:48:37.971Z,6.12
2018-11-22T12:49:37.992Z,6.06
2018-11-22T12:50:37.968Z,6.06
2018-11-22T12:51:38.070Z,6.06
2018-11-22T12:52:38.056Z,6.12
2018-11-22T12:53:38.468Z,6.12
2018-11-22T12:54:38.385Z,6.12
2018-11-22T12:55:37.940Z,6.12
2018-11-22T12:56:38.167Z,6.12
2018-11-22T12:57:38.092Z,6.12
2018-11-22T12:58:38.186Z,6.12
2018-11-22T12:59:38.150Z,6.19
2018-11-22T13:00:38.351Z,6.19
2018-11-22T13:01:37.989Z,6.19
2018-11-22T13:02:37.983Z,6.19
2018-11-22T13:03:38.143Z,6.25
2018-11-22T13:04:37.951Z,6.25
2018-11-22T13:05:37.970Z,6.25
2018-11-22T13:06:37.933Z,6.25
2018-11-22T13:07:38.297Z,6.25
2018-11-22T13:08:38.145Z,6.25
2018-11-22T13:09:37.961Z,6.25
2018-11-22T13:10:38.298Z,6.25
2018-11-22T13:11:38.001Z,6.25
2018-11-22T13:12:37.960Z,6.19
2018-11-22T13:13:38.184Z,6.25
2018-11-22T13:14:38.233Z,6.31
2018-11-22T13:15:38.061Z,6.31
2018-11-22T13:16:38.093Z,6.31
2018-11-22T13:17:37.963Z,6.31
2018-11-22T13:18:37.967Z,6.37
2018-11-22T13:19:38.453Z,6.37
2018-11-22T13:20:38.342Z,6.37